Time;durP1;ratioP1;P1;durP2;ratioP2;P2;SDS_P1;SDS_P2;PMS_P1;PMS_P2;Temp;Humidity;BMP_temperature;BMP_pressure;BME280_temperature;BME280_humidity;BME280_pressure;Samples;Min_cycle;Max_cycle;Signal;HPM_P1;HPM_P2
2024/04/14 00:01:57;;;;;;;4.70;1.92;;;;;;;15.08;76.93;100517.59;6918367;25;19997;-67
2024/04/14 00:04:59;;;;;;;4.70;1.98;;;;;;;15.00;76.59;100526.03;6894576;25;20004;-67
2024/04/14 00:08:00;;;;;;;8.27;2.35;;;;;;;14.91;76.89;100511.78;6895827;25;20028;-67
2024/04/14 00:11:01;;;;;;;3.28;2.10;;;;;;;14.91;76.79;100514.41;6883588;25;20029;-68
2024/04/14 00:14:02;;;;;;;3.97;2.20;;;;;;;14.89;77.35;100512.84;6918049;25;20000;-67
2024/04/14 00:17:03;;;;;;;4.15;1.90;;;;;;;14.87;77.26;100520.81;6920205;25;20342;-67
2024/04/14 00:20:06;;;;;;;2.95;1.90;;;;;;;14.85;77.59;100525.34;6951748;25;20032;-67
2024/04/14 00:23:07;;;;;;;3.20;1.77;;;;;;;14.78;77.16;100521.47;6903045;25;20003;-67
2024/04/14 00:26:08;;;;;;;3.07;1.63;;;;;;;14.73;76.58;100520.97;6934421;25;19992;-67
2024/04/14 00:29:09;;;;;;;3.80;1.65;;;;;;;14.73;76.95;100528.00;6937821;25;20043;-68
2024/04/14 00:32:11;;;;;;;3.90;1.83;;;;;;;14.62;76.36;100528.75;6933960;25;19992;-66
2024/04/14 00:35:12;;;;;;;6.20;1.77;;;;;;;14.62;77.45;100534.84;6905848;25;20043;-67
2024/04/14 00:38:13;;;;;;;2.70;1.90;;;;;;;14.61;76.89;100519.19;6877545;25;20013;-75
2024/04/14 00:41:15;;;;;;;7.10;1.93;;;;;;;14.52;79.55;100524.13;6906749;25;20450;-75
2024/04/14 00:44:15;;;;;;;2.15;1.80;;;;;;;14.46;78.86;100521.94;6908820;25;20257;-67
2024/04/14 00:47:17;;;;;;;3.53;1.83;;;;;;;14.44;78.73;100523.00;6922783;25;19996;-67
2024/04/14 00:50:18;;;;;;;6.13;2.10;;;;;;;14.43;82.26;100529.16;6910568;25;20268;-66
2024/04/14 00:53:21;;;;;;;4.07;2.22;;;;;;;14.35;81.81;100527.09;6906426;25;19993;-66
2024/04/14 00:56:23;;;;;;;6.68;1.90;;;;;;;14.36;80.49;100525.31;6906419;25;20013;-75
2024/04/14 00:59:26;;;;;;;4.30;2.35;;;;;;;14.32;81.15;100515.00;6906026;25;20072;-75
2024/04/14 01:02:27;;;;;;;5.63;2.00;;;;;;;14.34;81.06;100516.69;6925601;25;20123;-66
2024/04/14 01:05:29;;;;;;;3.70;1.93;;;;;;;14.32;80.22;100519.41;6907647;25;20454;-66
2024/04/14 01:08:31;;;;;;;3.88;1.90;;;;;;;14.21;80.63;100514.09;6888951;25;20450;-66
2024/04/14 01:11:32;;;;;;;5.90;2.10;;;;;;;14.16;81.10;100522.25;6929294;25;20323;-75
2024/04/14 01:14:33;;;;;;;3.55;2.15;;;;;;;14.14;83.41;100518.06;6882178;25;20009;-75
2024/04/14 01:17:34;;;;;;;6.87;2.80;;;;;;;14.09;82.15;100519.22;6902114;25;20024;-70
2024/04/14 01:20:35;;;;;;;2.93;2.13;;;;;;;14.05;80.75;100519.53;6938340;25;20036;-75
2024/04/14 01:23:37;;;;;;;4.33;2.10;;;;;;;14.01;81.44;100518.06;6875166;25;20020;-75
2024/04/14 01:26:39;;;;;;;8.43;2.05;;;;;;;13.98;84.24;100523.50;6926296;25;20072;-75
2024/04/14 01:29:39;;;;;;;5.90;2.33;;;;;;;13.94;81.87;100515.03;6893645;25;19997;-75
2024/04/14 01:32:40;;;;;;;4.65;2.13;;;;;;;13.90;82.32;100505.69;6906539;25;20111;-75
2024/04/14 01:35:43;;;;;;;5.53;2.37;;;;;;;13.81;82.96;100508.91;6876946;25;20023;-67
2024/04/14 01:38:44;;;;;;;5.28;2.40;;;;;;;13.74;83.06;100510.28;6898040;25;20802;-68
2024/04/14 01:41:45;;;;;;;6.50;2.10;;;;;;;13.64;85.14;100508.25;6952310;25;20490;-67
2024/04/14 01:44:48;;;;;;;6.50;2.47;;;;;;;13.55;84.28;100500.16;6914500;25;20392;-67
2024/04/14 01:47:49;;;;;;;3.97;2.13;;;;;;;13.57;84.27;100506.13;6915455;25;20458;-67
2024/04/14 01:50:51;;;;;;;4.63;2.63;;;;;;;13.60;83.95;100508.56;6951528;25;20758;-67
2024/04/14 01:53:52;;;;;;;15.18;2.60;;;;;;;13.48;83.20;100511.03;6919036;25;20027;-67
2024/04/14 01:56:53;;;;;;;6.47;2.67;;;;;;;13.41;84.05;100506.31;6952211;25;19996;-67
2024/04/14 01:59:54;;;;;;;5.05;2.60;;;;;;;13.39;85.49;100497.72;6918603;25;20007;-67
2024/04/14 02:02:56;;;;;;;5.27;2.60;;;;;;;13.18;88.93;100505.16;6918839;25;20454;-75
2024/04/14 02:05:58;;;;;;;4.13;2.53;;;;;;;13.16;89.82;100507.03;6918512;25;20035;-67
2024/04/14 02:09:00;;;;;;;;;;;;;;;13.15;88.47;100497.50;6919118;25;20011;-76
2024/04/14 02:12:00;;;;;;;3.45;2.25;;;;;;;13.19;86.54;100497.19;6951588;25;19950;-75
2024/04/14 02:15:02;;;;;;;3.97;2.40;;;;;;;13.23;86.45;100495.22;6917663;25;20017;-76
2024/04/14 02:18:03;;;;;;;7.40;2.23;;;;;;;13.23;85.58;100493.44;6950601;25;20718;-76
2024/04/14 02:21:04;;;;;;;7.20;2.47;;;;;;;13.23;85.65;100496.06;6918379;25;20322;-75
2024/04/14 02:24:06;;;;;;;5.27;2.50;;;;;;;13.18;85.18;100497.28;6918286;25;20063;-75
2024/04/14 02:27:07;;;;;;;5.80;2.50;;;;;;;13.21;84.98;100503.19;6918124;25;20000;-75
2024/04/14 02:30:09;;;;;;;7.38;2.63;;;;;;;13.16;83.51;100491.31;6916579;25;20975;-75
2024/04/14 02:33:10;;;;;;;4.88;2.33;;;;;;;13.19;83.69;100486.72;6871595;25;20029;-75
2024/04/14 02:36:12;;;;;;;5.40;2.70;;;;;;;13.16;83.21;100488.69;6910573;25;19996;-76
2024/04/14 02:39:13;;;;;;;3.67;2.30;;;;;;;13.12;84.04;100485.44;6907787;25;20037;-75
2024/04/14 02:42:14;;;;;;;3.90;2.80;;;;;;;13.19;84.17;100486.72;6903897;25;20067;-75
2024/04/14 02:45:16;;;;;;;6.07;3.17;;;;;;;13.20;83.75;100483.16;6917493;25;20232;-75
2024/04/14 02:48:18;;;;;;;3.42;2.40;;;;;;;13.18;83.67;100482.44;6896510;25;20000;-75
2024/04/14 02:51:20;;;;;;;;;;;;;;;13.08;85.03;100486.59;6921214;25;20068;-75
2024/04/14 02:54:21;;;;;;;5.03;2.50;;;;;;;13.07;84.84;100491.00;6897916;25;19934;-68
2024/04/14 02:57:23;;;;;;;3.72;2.47;;;;;;;13.03;84.86;100483.41;6913954;25;19996;-66
2024/04/14 03:00:24;;;;;;;5.13;2.60;;;;;;;13.02;85.54;100481.75;6913167;25;20037;-66
2024/04/14 03:03:25;;;;;;;5.28;2.97;;;;;;;12.99;85.55;100479.31;6915218;25;20015;-75
2024/04/14 03:06:26;;;;;;;6.20;2.38;;;;;;;12.92;86.35;100483.28;6909457;25;20000;-75
2024/04/14 03:09:28;;;;;;;4.85;2.88;;;;;;;12.87;86.56;100481.78;6917805;25;19997;-75
2024/04/14 03:12:29;;;;;;;9.98;2.90;;;;;;;12.91;86.44;100485.06;6934396;25;20001;-75
2024/04/14 03:15:30;;;;;;;7.45;2.47;;;;;;;12.83;87.29;100480.31;6905130;25;20349;-75
2024/04/14 03:18:32;;;;;;;4.03;2.55;;;;;;;12.82;87.48;100486.47;6897271;25;20001;-75
2024/04/14 03:21:33;;;;;;;8.88;2.70;;;;;;;12.85;87.49;100490.69;6932716;25;20011;-67
2024/04/14 03:24:34;;;;;;;10.75;2.95;;;;;;;12.84;86.47;100483.75;6916292;25;19996;-66
2024/04/14 03:27:35;;;;;;;3.83;2.67;;;;;;;12.92;86.19;100483.28;6916105;25;19996;-66
2024/04/14 03:30:36;;;;;;;5.72;2.53;;;;;;;12.90;86.79;100485.97;6917673;25;20011;-66
2024/04/14 03:33:38;;;;;;;7.87;2.77;;;;;;;12.90;86.16;100488.59;6921117;25;20063;-75
2024/04/14 03:36:39;;;;;;;3.13;2.38;;;;;;;12.89;86.41;100490.38;6908597;25;20503;-74
2024/04/14 03:39:40;;;;;;;6.07;2.65;;;;;;;12.79;86.89;100489.28;6919192;25;20011;-67
2024/04/14 03:42:41;;;;;;;3.85;2.55;;;;;;;12.83;87.23;100489.94;6905865;25;20067;-75
2024/04/14 03:45:43;;;;;;;4.60;2.70;;;;;;;12.67;88.20;100496.13;6916550;25;20399;-67
2024/04/14 03:48:44;;;;;;;6.80;3.07;;;;;;;12.72;88.74;100493.22;6939332;25;20439;-75
2024/04/14 03:51:45;;;;;;;5.47;2.90;;;;;;;12.72;88.96;100482.75;6915788;25;20000;-66
2024/04/14 03:54:46;;;;;;;3.67;2.70;;;;;;;12.73;88.84;100488.84;6910126;25;20008;-67
2024/04/14 03:57:47;;;;;;;3.90;2.55;;;;;;;12.76;88.75;100483.41;6928067;25;19997;-67
2024/04/14 04:00:49;;;;;;;9.88;3.08;;;;;;;12.68;88.68;100489.97;6928149;25;20001;-66
2024/04/14 04:03:53;;;;;;;4.40;2.80;;;;;;;12.66;89.58;100480.50;6923774;25;20435;-69
2024/04/14 04:06:54;;;;;;;6.45;2.80;;;;;;;12.63;89.18;100483.34;6881629;25;20413;-69
2024/04/14 04:09:55;;;;;;;11.37;3.60;;;;;;;12.65;89.90;100484.06;6935234;25;20028;-69
2024/04/14 04:12:56;;;;;;;8.37;3.40;;;;;;;12.61;89.97;100480.81;6938545;25;20068;-67
2024/04/14 04:15:59;;;;;;;6.77;2.97;;;;;;;12.54;91.87;100487.38;6926865;25;20000;-68
2024/04/14 04:19:00;;;;;;;6.80;4.10;;;;;;;12.63;91.29;100472.88;6899076;25;20008;-68
2024/04/14 04:22:02;;;;;;;10.07;3.45;;;;;;;12.61;91.77;100493.91;6914010;25;20552;-67
2024/04/14 04:25:02;;;;;;;7.70;4.07;;;;;;;12.72;92.70;100495.00;6895834;25;20008;-68
2024/04/14 04:28:04;;;;;;;8.67;4.20;;;;;;;12.78;92.71;100495.44;6880659;25;20011;-67
2024/04/14 04:31:12;;;;;;;8.20;3.30;;;;;;;12.80;93.14;100490.94;6894044;25;20450;-67
2024/04/14 04:34:13;;;;;;;5.07;3.55;;;;;;;12.80;92.60;100490.13;6934172;25;19997;-67
2024/04/14 04:37:15;;;;;;;10.40;3.70;;;;;;;12.86;92.74;100485.31;6905051;25;20004;-69
2024/04/14 04:40:16;;;;;;;8.77;4.40;;;;;;;12.91;93.56;100487.69;6908843;25;20018;-67
2024/04/14 04:43:18;;;;;;;6.70;3.97;;;;;;;12.94;93.02;100495.31;6953029;25;19996;-68
2024/04/14 04:46:19;;;;;;;;;;;;;;;12.94;93.78;100490.09;6926002;25;20072;-67
2024/04/14 04:49:21;;;;;;;9.00;4.70;;;;;;;12.94;94.29;100490.09;6878756;25;19931;-67
2024/04/14 04:52:22;;;;;;;11.00;4.27;;;;;;;12.92;95.74;100489.34;6946017;25;20076;-67
2024/04/14 04:55:24;;;;;;;7.78;4.03;;;;;;;13.05;94.92;100481.53;6946828;25;20431;-67
2024/04/14 04:58:24;;;;;;;6.75;4.07;;;;;;;13.06;95.25;100481.44;6940764;25;20018;-67
2024/04/14 05:01:25;;;;;;;9.02;3.72;;;;;;;13.09;96.27;100478.63;6915348;25;20044;-67
2024/04/14 05:04:26;;;;;;;9.98;4.45;;;;;;;13.17;95.83;100487.75;6950837;25;20311;-67
2024/04/14 05:07:27;;;;;;;5.68;3.72;;;;;;;13.28;95.99;100488.75;6939809;25;20071;-76
2024/04/14 05:10:28;;;;;;;6.90;3.63;;;;;;;13.34;95.96;100489.31;6948382;25;20359;-76
2024/04/14 05:13:30;;;;;;;6.43;3.50;;;;;;;13.49;95.51;100493.56;6913525;25;19992;-76
2024/04/14 05:16:31;;;;;;;6.47;3.88;;;;;;;13.56;94.55;100480.88;6938881;25;20008;-75
2024/04/14 05:19:32;;;;;;;7.60;3.93;;;;;;;13.57;94.32;100491.25;6943786;25;20423;-75
2024/04/14 05:22:33;;;;;;;7.30;4.15;;;;;;;13.76;94.18;100498.75;6915197;25;20007;-75
2024/04/14 05:25:35;;;;;;;7.90;4.27;;;;;;;13.78;93.76;100502.09;6917576;25;20067;-75
2024/04/14 05:28:36;;;;;;;7.68;3.92;;;;;;;13.85;92.97;100490.22;6930334;25;19996;-67
2024/04/14 05:31:38;;;;;;;5.63;3.67;;;;;;;14.07;92.76;100500.13;6945960;25;20030;-67
2024/04/14 05:34:39;;;;;;;9.70;4.10;;;;;;;13.98;92.85;100500.75;6936264;25;20011;-75
2024/04/14 05:37:40;;;;;;;4.53;3.42;;;;;;;14.31;90.74;100499.38;6925288;25;20466;-75
2024/04/14 05:40:41;;;;;;;6.00;4.05;;;;;;;14.35;90.24;100507.84;6903469;25;20454;-75
2024/04/14 05:43:43;;;;;;;7.13;4.30;;;;;;;14.51;89.79;100505.84;6895051;25;20004;-75
2024/04/14 05:46:44;;;;;;;9.10;4.10;;;;;;;14.61;89.95;100506.91;6925933;25;20072;-75
2024/04/14 05:49:46;;;;;;;16.63;3.63;;;;;;;14.68;89.06;100496.78;6929416;25;20024;-75
2024/04/14 05:52:47;;;;;;;6.97;3.85;;;;;;;14.87;88.80;100496.34;6932463;25;20004;-75
2024/04/14 05:55:48;;;;;;;7.10;3.97;;;;;;;15.01;86.97;100490.06;6933954;25;20076;-76
2024/04/14 05:58:49;;;;;;;12.00;4.10;;;;;;;14.97;87.60;100497.34;6881302;25;20444;-76
2024/04/14 06:01:50;;;;;;;5.82;3.70;;;;;;;14.97;87.00;100497.34;6924731;25;20004;-68
2024/04/14 06:04:52;;;;;;;7.80;4.07;;;;;;;15.10;86.84;100494.66;6918167;25;20388;-68
2024/04/14 06:07:53;;;;;;;8.75;3.92;;;;;;;15.21;86.69;100499.97;6912092;25;20022;-68
2024/04/14 06:10:55;;;;;;;6.80;3.63;;;;;;;15.32;85.46;100493.94;6951575;25;20000;-68
2024/04/14 06:13:56;;;;;;;6.03;3.50;;;;;;;15.36;84.80;100489.28;6950204;25;20356;-68
2024/04/14 06:16:57;;;;;;;5.30;3.35;;;;;;;15.55;84.72;100492.22;6943289;25;20001;-68
2024/04/14 06:19:58;;;;;;;4.95;3.55;;;;;;;15.58;84.04;100494.59;6939404;25;20457;-69
2024/04/14 06:23:01;;;;;;;7.07;3.70;;;;;;;15.71;83.25;100486.66;6950771;25;20004;-67
2024/04/14 06:26:02;;;;;;;8.50;3.53;;;;;;;15.86;83.05;100490.78;6950845;25;20306;-67
2024/04/14 06:29:03;;;;;;;6.37;3.27;;;;;;;16.03;82.33;100486.00;6951162;25;20000;-68
2024/04/14 06:32:05;;;;;;;8.93;3.40;;;;;;;16.29;81.52;100494.53;6951428;25;20729;-67
2024/04/14 06:35:06;;;;;;;3.53;2.97;;;;;;;16.42;79.53;100492.59;6951859;25;19992;-68
2024/04/14 06:38:09;;;;;;;4.72;3.25;;;;;;;16.52;78.30;100498.81;6915552;25;20015;-68
2024/04/14 06:41:11;;;;;;;5.88;2.78;;;;;;;16.70;78.10;100500.97;6943888;25;20011;-67
2024/04/14 06:44:12;;;;;;;4.68;2.67;;;;;;;17.14;77.92;100491.28;6886965;25;20005;-68
2024/04/14 06:47:13;;;;;;;8.25;3.03;;;;;;;17.11;75.14;100478.34;6923604;25;20434;-68
2024/04/14 06:50:15;;;;;;;7.53;3.30;;;;;;;17.27;75.19;100489.31;6899254;25;20028;-68
2024/04/14 06:53:20;;;;;;;7.63;3.00;;;;;;;17.46;74.76;100486.00;6916947;25;20003;-67
2024/04/14 06:56:22;;;;;;;9.05;3.40;;;;;;;17.63;74.45;100491.69;6917458;25;20028;-68
2024/04/14 06:59:23;;;;;;;11.50;3.05;;;;;;;17.95;74.11;100488.16;6950566;25;20461;-68
2024/04/14 07:02:24;;;;;;;5.75;3.22;;;;;;;18.14;73.26;100485.63;6952290;25;20362;-68
2024/04/14 07:05:26;;;;;;;6.43;2.60;;;;;;;18.40;71.88;100483.34;6955509;25;19996;-68
2024/04/14 07:08:27;;;;;;;7.75;2.85;;;;;;;18.61;71.59;100483.25;6955505;25;20228;-68
2024/04/14 07:11:29;;;;;;;4.45;2.30;;;;;;;18.87;70.01;100472.22;6922114;25;19992;-67
2024/04/14 07:14:30;;;;;;;;;;;;;;;19.04;69.09;100471.53;6922543;25;20525;-68
2024/04/14 07:17:31;;;;;;;3.38;2.17;;;;;;;19.29;67.90;100472.81;6921865;25;19934;-68
2024/04/14 07:20:36;;;;;;;4.20;2.15;;;;;;;19.56;67.74;100473.91;6955000;25;20003;-68
2024/04/14 07:23:38;;;;;;;3.53;2.30;;;;;;;19.77;66.77;100470.25;6949917;25;19996;-68
2024/04/14 07:26:39;;;;;;;6.00;2.25;;;;;;;19.83;65.24;100475.84;6954642;25;20012;-68
2024/04/14 07:29:40;;;;;;;4.95;2.42;;;;;;;20.17;65.21;100464.69;6954800;25;20342;-68
2024/04/14 07:32:41;;;;;;;4.88;2.50;;;;;;;20.41;64.24;100469.47;6932847;25;20000;-68
2024/04/14 07:35:44;;;;;;;8.63;2.25;;;;;;;20.82;64.38;100469.16;6922522;25;19992;-68
2024/04/14 07:38:46;;;;;;;14.55;2.20;;;;;;;21.04;64.17;100475.81;6954632;25;20006;-69
2024/04/14 07:41:47;;;;;;;5.28;2.03;;;;;;;21.29;62.01;100475.06;6954601;25;19996;-69
2024/04/14 07:44:49;;;;;;;10.80;2.47;;;;;;;21.27;60.68;100474.38;6954697;25;19996;-67
2024/04/14 07:47:49;;;;;;;6.20;2.40;;;;;;;21.53;61.61;100463.81;6954693;25;20033;-67
2024/04/14 07:50:50;;;;;;;4.30;2.07;;;;;;;21.72;59.64;100468.13;6954648;25;19996;-67
2024/04/14 07:53:52;;;;;;;3.57;1.90;;;;;;;21.86;58.37;100468.53;6954275;25;20006;-67
2024/04/14 07:56:53;;;;;;;7.07;1.98;;;;;;;22.20;58.14;100470.38;6954553;25;20461;-68
2024/04/14 07:59:54;;;;;;;5.03;1.90;;;;;;;22.46;56.15;100465.00;6921154;25;20027;-67
2024/04/14 08:02:55;;;;;;;3.33;1.70;;;;;;;22.30;56.68;100458.66;6919544;25;20352;-67
2024/04/14 08:05:56;;;;;;;5.30;2.57;;;;;;;22.72;56.92;100455.13;6953757;25;20025;-67
2024/04/14 08:08:57;;;;;;;3.10;2.00;;;;;;;22.96;54.95;100457.97;6920449;25;20011;-67
2024/04/14 08:11:59;;;;;;;3.67;1.90;;;;;;;23.10;55.41;100450.22;6928404;25;20032;-67
2024/04/14 08:15:00;;;;;;;10.60;2.10;;;;;;;23.09;53.67;100450.38;6895131;25;19996;-67
2024/04/14 08:18:02;;;;;;;8.25;2.05;;;;;;;23.21;52.51;100448.25;6890292;25;20067;-67
2024/04/14 08:21:03;;;;;;;7.33;2.23;;;;;;;23.33;52.78;100446.91;6954170;25;20000;-67
2024/04/14 08:24:06;;;;;;;2.92;1.80;;;;;;;23.56;52.31;100441.72;6920701;25;20236;-68
2024/04/14 08:27:08;;;;;;;7.50;2.05;;;;;;;23.46;51.89;100433.09;6952896;25;20067;-67
2024/04/14 08:30:10;;;;;;;6.45;2.03;;;;;;;23.72;52.30;100436.38;6948632;25;20446;-67
2024/04/14 08:33:10;;;;;;;5.07;2.00;;;;;;;23.94;51.99;100439.31;6913154;25;20085;-67
2024/04/14 08:36:12;;;;;;;5.20;1.85;;;;;;;24.27;52.13;100441.88;6953683;25;19996;-68
2024/04/14 08:39:14;;;;;;;4.45;1.80;;;;;;;24.32;50.50;100436.88;6953507;25;19992;-67
2024/04/14 08:42:17;;;;;;;6.32;2.38;;;;;;;24.34;53.00;100440.19;6953379;25;19992;-68
2024/04/14 08:45:24;;;;;;;2.28;1.70;;;;;;;24.21;51.12;100438.06;6945867;25;20004;-67
2024/04/14 08:48:26;;;;;;;6.22;2.10;;;;;;;24.43;52.58;100428.47;6909656;25;20003;-67
2024/04/14 08:51:29;;;;;;;14.35;2.15;;;;;;;24.68;52.09;100439.84;6953112;25;19996;-68
2024/04/14 08:54:30;;;;;;;9.18;1.95;;;;;;;24.50;50.12;100432.13;6895648;25;20023;-67
2024/04/14 08:57:33;;;;;;;14.27;2.50;;;;;;;24.48;51.22;100427.94;6922288;25;19988;-67
2024/04/14 09:00:37;;;;;;;7.50;2.05;;;;;;;24.41;52.15;100425.13;6952897;25;20003;-67
2024/04/14 09:03:38;;;;;;;6.20;2.25;;;;;;;24.59;50.66;100429.41;6904261;25;20011;-67
2024/04/14 09:06:40;;;;;;;4.97;2.30;;;;;;;24.70;50.20;100429.00;6933289;25;20014;-67
2024/04/14 09:09:42;;;;;;;9.05;2.33;;;;;;;25.21;50.61;100423.16;6897326;25;20601;-67
2024/04/14 09:12:46;;;;;;;7.82;2.08;;;;;;;25.31;51.90;100429.09;6903275;25;19999;-67
2024/04/14 09:15:47;;;;;;;2.85;1.70;;;;;;;24.98;50.81;100423.97;6952286;25;20121;-68
2024/04/14 09:18:48;;;;;;;;;;;;;;;24.98;50.88;100423.97;6953261;25;20450;-67
2024/04/14 09:21:49;;;;;;;3.42;1.85;;;;;;;24.89;50.24;100412.53;6919654;25;19930;-67
2024/04/14 09:24:50;;;;;;;;;;;;;;;24.89;50.58;100419.69;6952242;25;20471;-67
2024/04/14 09:28:10;;;;;;;3.13;1.80;;;;;;;25.21;49.86;100407.97;6919300;25;20412;-68
2024/04/14 09:31:11;;;;;;;3.20;1.70;;;;;;;25.62;50.14;100409.41;6919577;25;20216;-68
2024/04/14 09:34:13;;;;;;;5.25;1.98;;;;;;;25.74;48.69;100406.09;6919057;25;20466;-67
2024/04/14 09:37:18;;;;;;;3.75;1.67;;;;;;;25.52;46.78;100399.81;6952151;25;19992;-67
2024/04/14 09:40:19;;;;;;;4.82;1.80;;;;;;;25.81;46.75;100395.50;6912197;25;20430;-67
2024/04/14 09:43:22;;;;;;;5.85;1.65;;;;;;;26.03;46.31;100399.09;6920321;25;20001;-67
2024/04/14 09:46:24;;;;;;;4.88;1.73;;;;;;;26.03;45.75;100396.44;6896806;25;20000;-67
2024/04/14 09:49:27;;;;;;;7.80;1.90;;;;;;;26.29;46.90;100382.53;6903420;25;20011;-67
2024/04/14 09:52:30;;;;;;;7.22;1.85;;;;;;;26.34;44.75;100376.66;6904971;25;20007;-67
2024/04/14 09:55:32;;;;;;;12.65;2.10;;;;;;;26.02;46.30;100381.41;6872637;25;20044;-67
2024/04/14 09:58:33;;;;;;;12.90;1.90;;;;;;;26.28;43.85;100364.84;6906401;25;19997;-67
2024/04/14 10:01:37;;;;;;;;;;;;;;;26.20;45.14;100369.50;6942029;25;19995;-66
2024/04/14 10:04:44;;;;;;;6.32;2.05;;;;;;;26.16;43.73;100373.56;6918332;25;19927;-67
2024/04/14 10:07:46;;;;;;;12.50;2.22;;;;;;;26.58;44.58;100345.22;6951944;25;20454;-67
2024/04/14 10:10:52;;;;;;;7.85;2.00;;;;;;;26.76;42.67;100361.66;6951775;25;20011;-67
2024/04/14 10:13:55;;;;;;;8.55;1.90;;;;;;;26.54;43.59;100358.09;6939268;25;20011;-67
2024/04/14 10:16:56;;;;;;;4.80;1.55;;;;;;;26.64;43.31;100350.63;6951148;25;20014;-66
2024/04/14 10:20:00;;;;;;;4.28;1.85;;;;;;;26.68;45.45;100346.53;6951318;25;20448;-68
2024/04/14 10:23:05;;;;;;;3.42;1.75;;;;;;;26.60;44.22;100341.31;6951300;25;20063;-67
2024/04/14 10:26:14;;;;;;;20.67;2.58;;;;;;;27.28;47.32;100325.63;6951150;25;20071;-68
2024/04/14 10:29:19;;;;;;;9.52;1.88;;;;;;;27.05;46.08;100330.38;6917937;25;20398;-67
2024/04/14 10:32:21;;;;;;;6.32;1.83;;;;;;;27.31;42.61;100327.09;6951108;25;20447;-67
2024/04/14 10:35:24;;;;;;;;;;;;;;;27.26;42.36;100325.00;6918610;25;20346;-68
2024/04/14 10:38:27;;;;;;;4.85;1.35;;;;;;;27.19;41.29;100316.06;6920583;25;20379;-68
2024/04/14 10:41:28;;;;;;;9.80;1.38;;;;;;;27.39;40.59;100310.84;6914562;25;19997;-67
2024/04/14 10:44:29;;;;;;;6.65;1.70;;;;;;;27.73;39.46;100322.56;6912252;25;20011;-68
2024/04/14 10:47:31;;;;;;;10.13;1.70;;;;;;;27.57;39.99;100318.34;6920649;25;20010;-67
2024/04/14 10:50:32;;;;;;;5.88;1.48;;;;;;;27.67;39.17;100309.94;6898253;25;20008;-68
2024/04/14 10:53:34;;;;;;;;;;;;;;;27.80;38.83;100317.22;6902294;25;20006;-67
2024/04/14 10:56:35;;;;;;;17.67;1.60;;;;;;;28.00;37.97;100302.06;6955472;25;19923;-67
2024/04/14 10:59:36;;;;;;;8.00;2.53;;;;;;;28.16;38.14;100297.38;6955543;25;20119;-67
2024/04/14 11:02:37;;;;;;;;;;;;;;;27.91;37.73;100298.75;6956005;25;20032;-68
2024/04/14 11:05:39;;;;;;;13.60;2.17;;;;;;;27.64;37.82;100294.28;6955050;25;20296;-67
2024/04/14 11:08:41;;;;;;;2.97;1.40;;;;;;;28.12;39.82;100284.34;6955325;25;20025;-69
2024/04/14 11:11:43;;;;;;;13.07;1.45;;;;;;;27.79;38.25;100286.91;6918822;25;20004;-68
2024/04/14 11:14:45;;;;;;;6.63;1.58;;;;;;;27.81;38.05;100274.13;6910453;25;20000;-68
2024/04/14 11:17:46;;;;;;;5.13;1.55;;;;;;;28.03;38.00;100276.72;6908197;25;20007;-69
2024/04/14 11:20:48;;;;;;;;;;;;;;;28.09;37.48;100283.94;6876313;25;20046;-69
2024/04/14 11:23:50;;;;;;;14.02;1.88;;;;;;;28.04;38.64;100273.00;6875375;25;20070;-68
2024/04/14 11:26:51;;;;;;;9.07;2.13;;;;;;;28.05;38.64;100274.66;6880803;25;20028;-68
2024/04/14 11:29:52;;;;;;;;;;;;;;;27.88;36.42;100275.03;6932717;25;19996;-68
2024/04/14 11:32:55;;;;;;;14.38;1.92;;;;;;;27.71;38.02;100268.31;6924616;25;19922;-68
2024/04/14 11:36:00;;;;;;;8.88;1.65;;;;;;;27.77;38.57;100264.03;6924631;25;20335;-69
2024/04/14 11:39:03;;;;;;;16.98;1.90;;;;;;;27.98;37.73;100255.84;6885987;25;20073;-68
2024/04/14 11:42:04;;;;;;;8.02;1.10;;;;;;;28.37;37.62;100232.78;6919350;25;20445;-68
2024/04/14 11:45:06;;;;;;;7.32;1.70;;;;;;;28.63;37.34;100241.91;6950957;25;20000;-68
2024/04/14 11:48:07;;;;;;;10.10;1.45;;;;;;;28.81;34.83;100239.44;6921388;25;20003;-68
2024/04/14 11:51:08;;;;;;;4.30;1.52;;;;;;;28.75;35.30;100234.06;6954522;25;20023;-68
2024/04/14 11:54:09;;;;;;;;;;;;;;;28.91;35.14;100237.13;6922349;25;19992;-67
2024/04/14 11:57:11;;;;;;;6.88;1.48;;;;;;;28.96;34.78;100219.56;6954412;25;20680;-67
2024/04/14 12:00:12;;;;;;;;;;;;;;;28.86;35.56;100220.00;6955063;25;19988;-68
2024/04/14 12:03:13;;;;;;;7.35;1.83;;;;;;;28.65;34.48;100213.00;6954326;25;19922;-67
2024/04/14 12:06:14;;;;;;;9.88;2.08;;;;;;;28.54;33.62;100206.41;6954000;25;20398;-68
2024/04/14 12:09:16;;;;;;;4.45;1.33;;;;;;;28.65;35.40;100196.91;6920994;25;20435;-67
2024/04/14 12:12:17;;;;;;;5.18;1.42;;;;;;;28.81;35.54;100193.78;6954100;25;19992;-67
2024/04/14 12:15:18;;;;;;;;;;;;;;;28.92;34.97;100190.44;6951444;25;20031;-67
2024/04/14 12:18:19;;;;;;;6.60;1.73;;;;;;;28.83;34.28;100191.72;6953948;25;20352;-67
2024/04/14 12:21:20;;;;;;;4.65;1.83;;;;;;;28.27;34.66;100182.25;6921005;25;20538;-67
2024/04/14 12:24:21;;;;;;;6.03;1.50;;;;;;;28.42;34.86;100176.66;6953829;25;20003;-67
2024/04/14 12:27:22;;;;;;;5.22;1.60;;;;;;;28.65;35.40;100176.25;6920882;25;20470;-67
2024/04/14 12:30:23;;;;;;;4.15;1.60;;;;;;;28.65;35.32;100167.38;6915116;25;20007;-67
2024/04/14 12:33:24;;;;;;;6.03;1.30;;;;;;;28.80;35.15;100164.44;6874008;25;20011;-67
2024/04/14 12:36:24;;;;;;;3.35;1.10;;;;;;;28.99;34.71;100158.19;6906790;25;20514;-67
2024/04/14 12:39:25;;;;;;;3.13;1.35;;;;;;;29.02;34.96;100155.09;6911513;25;19995;-68
2024/04/14 12:42:26;;;;;;;2.03;1.25;;;;;;;28.88;34.65;100158.84;6890389;25;20320;-67
2024/04/14 12:45:28;;;;;;;2.05;1.23;;;;;;;28.93;33.52;100150.97;6899277;25;20346;-67
2024/04/14 12:48:29;;;;;;;3.33;1.23;;;;;;;28.89;33.78;100144.38;6902765;25;20011;-67
2024/04/14 12:51:30;;;;;;;20.58;1.77;;;;;;;28.75;35.03;100146.28;6930699;25;19992;-67
2024/04/14 12:54:31;;;;;;;2.63;2.00;;;;;;;29.04;34.99;100134.22;6898467;25;19992;-67
2024/04/14 12:57:32;;;;;;;;;;;;;;;29.12;34.99;100125.94;6920673;25;20025;-67
2024/04/14 13:00:36;;;;;;;4.03;1.42;;;;;;;29.34;34.13;100136.38;6919101;25;19922;-69
2024/04/14 13:03:36;;;;;;;7.93;1.27;;;;;;;29.00;34.18;100134.84;6919952;25;20386;-67
2024/04/14 13:06:37;;;;;;;7.80;1.42;;;;;;;28.93;35.07;100127.66;6953321;25;20010;-68
2024/04/14 13:09:38;;;;;;;2.90;1.40;;;;;;;28.77;33.83;100130.81;6919052;25;20004;-68
2024/04/14 13:12:39;;;;;;;;;;;;;;;28.83;35.17;100127.28;6920627;25;20395;-68
2024/04/14 13:15:41;;;;;;;4.18;1.40;;;;;;;28.37;33.33;100127.34;6952926;25;19922;-67
2024/04/14 13:18:42;;;;;;;7.15;1.58;;;;;;;28.31;34.14;100119.09;6919084;25;20430;-68
2024/04/14 13:21:43;;;;;;;4.18;1.38;;;;;;;28.44;34.96;100122.81;6919640;25;19988;-67
2024/04/14 13:24:44;;;;;;;3.88;1.30;;;;;;;28.40;34.49;100119.69;6952939;25;19996;-68
2024/04/14 13:27:48;;;;;;;1.90;1.50;;;;;;;28.26;34.92;100110.03;6919388;25;20011;-68
2024/04/14 13:30:49;;;;;;;4.05;1.30;;;;;;;28.42;35.05;100108.75;6883057;25;20000;-67
2024/04/14 13:33:51;;;;;;;;;;;;;;;28.53;34.94;100108.13;6953451;25;20000;-68
2024/04/14 13:36:54;;;;;;;5.63;1.90;;;;;;;28.58;34.82;100100.31;6917161;25;19989;-67
2024/04/14 13:39:54;;;;;;;6.05;1.52;;;;;;;28.51;35.20;100096.78;6951000;25;19996;-67
2024/04/14 13:42:55;;;;;;;10.13;1.60;;;;;;;28.63;35.73;100088.91;6951843;25;20007;-68
2024/04/14 13:45:56;;;;;;;3.58;1.50;;;;;;;28.50;35.46;100089.78;6951000;25;20071;-68
2024/04/14 13:48:58;;;;;;;4.00;1.20;;;;;;;28.44;35.31;100077.19;6918523;25;20373;-67
2024/04/14 13:51:59;;;;;;;3.28;1.35;;;;;;;28.53;35.64;100076.75;6918664;25;19992;-67
2024/04/14 13:55:01;;;;;;;5.15;1.40;;;;;;;28.53;36.11;100057.16;6922373;25;20020;-67
2024/04/14 13:58:01;;;;;;;8.00;1.52;;;;;;;28.75;36.20;100068.44;6871918;25;20478;-67
2024/04/14 14:01:02;;;;;;;4.93;1.27;;;;;;;28.84;36.37;100060.97;6904554;25;20009;-75
2024/04/14 14:04:04;;;;;;;;;;;;;;;28.74;35.31;100066.78;6872955;25;19997;-75
2024/04/14 14:07:05;;;;;;;2.08;1.55;;;;;;;28.44;36.22;100061.09;6875412;25;20640;-76
2024/04/14 14:10:06;;;;;;;3.83;1.52;;;;;;;28.61;35.90;100054.22;6951737;25;20024;-76